Time,TemperatureF,DewpointF,PressureIn,WindDirection,WindDirectionDegrees,WindSpeedMPH,WindSpeedGustMPH,Humidity,HourlyPrecipIn,Conditions,Clouds,dailyrainin,SolarRadiationWatts/m^2,SoftwareType,DateUTC
2013-01-16 00:02:00,28.0,23.0,-100.00,North,4,7.0,13.0,82,0.00,,,0.03,0.000000,,2013-01-16 06:02:00,
2013-01-16 00:33:00,28.0,23.0,-100.00,North,10,5.0,11.0,81,0.00,,,0.03,0.000000,,2013-01-16 06:33:00,
2013-01-16 00:43:00,28.0,23.0,-100.00,North,10,5.0,11.0,81,0.00,,,0.03,0.000000,,2013-01-16 06:43:00,
2013-01-16 00:53:00,28.0,23.0,-100.00,North,10,5.0,11.0,81,0.00,,,0.03,0.000000,,2013-01-16 06:53:00,
2013-01-16 01:02:00,28.0,23.0,-100.00,North,10,5.0,11.0,81,0.00,,,0.03,0.000000,,2013-01-16 07:02:00,
2013-01-16 01:33:00,29.0,24.0,-100.00,North,1,4.0,11.0,81,0.00,,,0.03,0.000000,,2013-01-16 07:33:00,
2013-01-16 01:42:00,29.0,24.0,-100.00,North,1,4.0,11.0,81,0.00,,,0.03,0.000000,,2013-01-16 07:42:00,
2013-01-16 01:52:00,29.0,24.0,-100.00,North,1,4.0,11.0,81,0.00,,,0.03,0.000000,,2013-01-16 07:52:00,
2013-01-16 02:02:00,29.0,24.0,-100.00,North,1,4.0,11.0,81,0.00,,,0.03,0.000000,,2013-01-16 08:02:00,
2013-01-16 02:33:00,29.0,24.0,-100.00,North,352,4.0,9.0,81,0.00,,,0.03,0.000000,,2013-01-16 08:33:00,
2013-01-16 02:42:00,29.0,24.0,-100.00,North,352,4.0,9.0,81,0.00,,,0.03,0.000000,,2013-01-16 08:42:00,
2013-01-16 02:53:00,29.0,24.0,-100.00,North,352,4.0,9.0,81,0.00,,,0.03,0.000000,,2013-01-16 08:53:00,
2013-01-16 03:02:00,29.0,24.0,-100.00,North,352,4.0,9.0,81,0.00,,,0.03,0.000000,,2013-01-16 09:02:00,
2013-01-16 03:33:00,29.0,24.0,-100.00,NNW,347,5.0,9.0,81,0.00,,,0.03,0.000000,,2013-01-16 09:33:00,
2013-01-16 03:43:00,29.0,24.0,-100.00,NNW,347,5.0,9.0,81,0.00,,,0.03,0.000000,,2013-01-16 09:43:00,
2013-01-16 03:53:00,29.0,24.0,-100.00,NNW,347,5.0,9.0,81,0.00,,,0.03,0.000000,,2013-01-16 09:53:00,
2013-01-16 04:02:00,29.0,24.0,-100.00,NNW,347,5.0,9.0,81,0.00,,,0.03,0.000000,,2013-01-16 10:02:00,
2013-01-16 04:33:00,29.0,24.0,-100.00,NNW,338,7.0,10.0,82,0.00,,,0.03,0.000000,,2013-01-16 10:33:00,
2013-01-16 04:43:00,29.0,24.0,-100.00,NNW,338,7.0,10.0,82,0.00,,,0.03,0.000000,,2013-01-16 10:43:00,
2013-01-16 04:53:00,29.0,24.0,-100.00,NNW,338,7.0,10.0,82,0.00,,,0.03,0.000000,,2013-01-16 10:53:00,
2013-01-16 05:02:00,29.0,24.0,-100.00,NNW,338,7.0,10.0,82,0.00,,,0.03,0.000000,,2013-01-16 11:02:00,
2013-01-16 05:33:00,29.0,24.0,-100.00,NNW,343,7.0,10.0,81,0.00,,,0.03,0.000000,,2013-01-16 11:33:00,
2013-01-16 05:43:00,29.0,24.0,-100.00,NNW,343,7.0,10.0,81,0.00,,,0.03,0.000000,,2013-01-16 11:43:00,
2013-01-16 05:53:00,29.0,24.0,-100.00,NNW,343,7.0,10.0,81,0.00,,,0.03,0.000000,,2013-01-16 11:53:00,
2013-01-16 06:03:00,29.0,24.0,-100.00,NNW,343,7.0,10.0,81,0.00,,,0.03,0.000000,,2013-01-16 12:03:00,
2013-01-16 06:33:00,29.0,24.0,-100.00,NNW,331,5.0,11.0,81,0.00,,,0.03,0.000000,,2013-01-16 12:33:00,
2013-01-16 06:43:00,29.0,24.0,-100.00,NNW,331,5.0,11.0,81,0.00,,,0.03,0.000000,,2013-01-16 12:43:00,
2013-01-16 06:53:00,29.0,24.0,-100.00,NNW,331,5.0,11.0,81,0.00,,,0.03,0.000000,,2013-01-16 12:53:00,
2013-01-16 07:03:00,29.0,24.0,-100.00,NNW,331,5.0,11.0,81,0.00,,,0.03,0.000000,,2013-01-16 13:03:00,
2013-01-16 07:33:00,29.0,24.0,-100.00,NNW,330,6.0,8.0,82,0.00,,,0.03,0.000000,,2013-01-16 13:33:00,
2013-01-16 07:43:00,29.0,24.0,-100.00,NNW,330,6.0,8.0,82,0.00,,,0.03,0.000000,,2013-01-16 13:43:00,
2013-01-16 07:53:00,29.0,24.0,-100.00,NNW,330,6.0,8.0,82,0.00,,,0.03,0.000000,,2013-01-16 13:53:00,
2013-01-16 08:03:00,29.0,24.0,-100.00,NNW,330,6.0,8.0,82,0.00,,,0.03,0.000000,,2013-01-16 14:03:00,
2013-01-16 08:33:00,29.0,24.0,-100.00,NNW,340,4.0,10.0,82,0.00,,,0.03,11.000000,,2013-01-16 14:33:00,
2013-01-16 08:43:00,29.0,24.0,-100.00,NNW,340,4.0,10.0,82,0.00,,,0.03,11.000000,,2013-01-16 14:43:00,
2013-01-16 08:53:00,29.0,24.0,-100.00,NNW,340,4.0,10.0,82,0.00,,,0.03,11.000000,,2013-01-16 14:53:00,
2013-01-16 09:03:00,29.0,24.0,-100.00,NNW,340,4.0,10.0,82,0.00,,,0.03,11.000000,,2013-01-16 15:03:00,
2013-01-16 09:33:00,30.0,25.0,-100.00,North,355,4.0,7.0,80,0.00,,,0.03,70.000000,,2013-01-16 15:33:00,
2013-01-16 09:43:00,30.0,25.0,-100.00,North,355,4.0,7.0,80,0.00,,,0.03,70.000000,,2013-01-16 15:43:00,
2013-01-16 09:53:00,30.0,25.0,-100.00,North,355,4.0,7.0,80,0.00,,,0.03,70.000000,,2013-01-16 15:53:00,
2013-01-16 10:03:00,30.0,25.0,-100.00,North,355,4.0,7.0,80,0.00,,,0.03,70.000000,,2013-01-16 16:03:00,
2013-01-16 10:33:00,31.0,23.0,-100.00,NW,310,2.0,7.0,73,0.00,,,0.02,144.000000,,2013-01-16 16:33:00,
2013-01-16 10:43:00,31.0,23.0,-100.00,NW,310,2.0,7.0,73,0.00,,,0.02,144.000000,,2013-01-16 16:43:00,
2013-01-16 10:53:00,31.0,23.0,-100.00,NW,310,2.0,7.0,73,0.00,,,0.02,144.000000,,2013-01-16 16:53:00,
2013-01-16 11:03:00,31.0,23.0,-100.00,NW,310,2.0,7.0,73,0.00,,,0.02,144.000000,,2013-01-16 17:03:00,
2013-01-16 11:33:00,32.0,24.0,-100.00,NW,308,4.0,7.0,72,0.00,,,0.00,213.000000,,2013-01-16 17:33:00,
2013-01-16 11:44:00,32.0,24.0,-100.00,NW,308,4.0,7.0,72,0.00,,,0.00,213.000000,,2013-01-16 17:44:00,
2013-01-16 11:53:00,32.0,24.0,-100.00,NW,308,4.0,7.0,72,0.00,,,0.00,213.000000,,2013-01-16 17:53:00,
2013-01-16 12:03:00,32.0,24.0,-100.00,NW,308,4.0,7.0,72,0.00,,,0.00,213.000000,,2013-01-16 18:03:00,
2013-01-16 12:33:00,33.0,22.0,-100.00,NW,320,3.0,8.0,64,0.00,,,0.00,225.000000,,2013-01-16 18:33:00,
2013-01-16 12:43:00,33.0,22.0,-100.00,NW,320,3.0,8.0,64,0.00,,,0.00,225.000000,,2013-01-16 18:43:00,
2013-01-16 12:53:00,33.0,22.0,-100.00,NW,320,3.0,8.0,64,0.00,,,0.00,225.000000,,2013-01-16 18:53:00,
2013-01-16 13:03:00,33.0,22.0,-100.00,NW,320,3.0,8.0,64,0.00,,,0.00,225.000000,,2013-01-16 19:03:00,
2013-01-16 13:33:00,34.0,22.0,-100.00,SW,231,3.0,6.0,62,0.00,,,0.00,237.000000,,2013-01-16 19:33:00,
2013-01-16 13:43:00,34.0,22.0,-100.00,SW,231,3.0,6.0,62,0.00,,,0.00,237.000000,,2013-01-16 19:43:00,
2013-01-16 13:53:00,34.0,22.0,-100.00,SW,231,3.0,6.0,62,0.00,,,0.00,237.000000,,2013-01-16 19:53:00,
2013-01-16 14:03:00,34.0,22.0,-100.00,SW,231,3.0,6.0,62,0.00,,,0.00,237.000000,,2013-01-16 20:03:00,
2013-01-16 14:33:00,34.0,22.0,-100.00,SSW,197,3.0,6.0,61,0.00,,,0.00,200.000000,,2013-01-16 20:33:00,
2013-01-16 14:43:00,34.0,22.0,-100.00,SSW,197,3.0,6.0,61,0.00,,,0.00,200.000000,,2013-01-16 20:43:00,
2013-01-16 14:53:00,34.0,22.0,-100.00,SSW,197,3.0,6.0,61,0.00,,,0.00,200.000000,,2013-01-16 20:53:00,
2013-01-16 15:03:00,34.0,22.0,-100.00,SSW,197,3.0,6.0,61,0.00,,,0.00,200.000000,,2013-01-16 21:03:00,
2013-01-16 15:33:00,34.0,24.0,-100.00,South,185,4.0,8.0,66,0.00,,,0.00,150.000000,,2013-01-16 21:33:00,
2013-01-16 15:43:00,34.0,24.0,-100.00,South,185,4.0,8.0,66,0.00,,,0.00,150.000000,,2013-01-16 21:43:00,
2013-01-16 15:53:00,34.0,24.0,-100.00,South,185,4.0,8.0,66,0.00,,,0.00,150.000000,,2013-01-16 21:53:00,
2013-01-16 16:03:00,34.0,24.0,-100.00,South,185,4.0,8.0,66,0.00,,,0.00,150.000000,,2013-01-16 22:03:00,
2013-01-16 16:33:00,33.0,24.0,-100.00,WSW,243,2.0,7.0,68,0.00,,,-99.99,81.000000,,2013-01-16 22:33:00,
2013-01-16 16:43:00,33.0,24.0,-100.00,WSW,243,2.0,7.0,68,0.00,,,-99.99,81.000000,,2013-01-16 22:43:00,
2013-01-16 16:53:00,33.0,24.0,-100.00,WSW,243,2.0,7.0,68,0.00,,,-99.99,81.000000,,2013-01-16 22:53:00,
2013-01-16 17:03:00,33.0,24.0,-100.00,WSW,243,2.0,7.0,68,0.00,,,-99.99,81.000000,,2013-01-16 23:03:00,
2013-01-16 17:33:00,32.0,24.0,-100.00,South,176,2.0,4.0,73,0.00,,,0.00,32.000000,,2013-01-16 23:33:00,
2013-01-16 17:43:00,32.0,24.0,-100.00,South,176,2.0,4.0,73,0.00,,,0.00,32.000000,,2013-01-16 23:43:00,
2013-01-16 17:53:00,32.0,24.0,-100.00,South,176,2.0,4.0,73,0.00,,,0.00,32.000000,,2013-01-16 23:53:00,
2013-01-16 18:02:00,32.0,24.0,-100.00,South,176,2.0,4.0,73,0.00,,,0.00,32.000000,,2013-01-17 00:02:00,
2013-01-16 18:33:00,31.0,25.0,-100.00,SW,215,2.0,3.0,79,0.00,,,0.00,2.000000,,2013-01-17 00:33:00,
2013-01-16 18:42:00,31.0,25.0,-100.00,SW,215,2.0,3.0,79,0.00,,,0.00,2.000000,,2013-01-17 00:42:00,
2013-01-16 18:52:00,31.0,25.0,-100.00,SW,215,2.0,3.0,79,0.00,,,0.00,2.000000,,2013-01-17 00:52:00,
2013-01-16 19:02:00,31.0,25.0,-100.00,SW,215,2.0,3.0,79,0.00,,,0.00,2.000000,,2013-01-17 01:02:00,
2013-01-16 19:33:00,30.0,25.0,-100.00,WSW,237,2.0,3.0,80,0.00,,,0.00,0.000000,,2013-01-17 01:33:00,
2013-01-16 19:43:00,30.0,25.0,-100.00,WSW,237,2.0,3.0,80,0.00,,,0.00,0.000000,,2013-01-17 01:43:00,
2013-01-16 19:52:00,30.0,25.0,-100.00,WSW,237,2.0,3.0,80,0.00,,,0.00,0.000000,,2013-01-17 01:52:00,
2013-01-16 20:02:00,30.0,25.0,-100.00,WSW,237,2.0,3.0,80,0.00,,,0.00,0.000000,,2013-01-17 02:02:00,
2013-01-16 20:32:00,30.0,26.0,-100.00,SW,225,2.0,4.0,84,0.00,,,0.00,0.000000,,2013-01-17 02:32:00,
2013-01-16 20:43:00,30.0,26.0,-100.00,SW,225,2.0,4.0,84,0.00,,,0.00,0.000000,,2013-01-17 02:43:00,
2013-01-16 20:52:00,30.0,26.0,-100.00,SW,225,2.0,4.0,84,0.00,,,0.00,0.000000,,2013-01-17 02:52:00,
2013-01-16 21:03:00,30.0,26.0,-100.00,SW,225,2.0,4.0,84,0.00,,,0.00,0.000000,,2013-01-17 03:03:00,
2013-01-16 21:33:00,29.0,26.0,-100.00,SE,140,1.0,3.0,89,0.00,,,0.00,0.000000,,2013-01-17 03:33:00,
2013-01-16 21:43:00,29.0,26.0,-100.00,SE,140,1.0,3.0,89,0.00,,,0.00,0.000000,,2013-01-17 03:43:00,
2013-01-16 21:53:00,29.0,26.0,-100.00,SE,140,1.0,3.0,89,0.00,,,0.00,0.000000,,2013-01-17 03:53:00,
2013-01-16 22:02:00,29.0,26.0,-100.00,SE,140,1.0,3.0,89,0.00,,,0.00,0.000000,,2013-01-17 04:02:00,
2013-01-16 22:33:00,29.0,26.0,-100.00,South,176,2.0,5.0,89,0.00,,,0.00,0.000000,,2013-01-17 04:33:00,
2013-01-16 22:43:00,29.0,26.0,-100.00,South,176,2.0,5.0,89,0.00,,,0.00,0.000000,,2013-01-17 04:43:00,
2013-01-16 22:52:00,29.0,26.0,-100.00,South,176,2.0,5.0,89,0.00,,,0.00,0.000000,,2013-01-17 04:52:00,
2013-01-16 23:04:00,29.0,26.0,-100.00,South,176,2.0,5.0,89,0.00,,,0.00,0.000000,,2013-01-17 05:04:00,
2013-01-16 23:33:00,29.0,26.0,-100.00,SSW,196,1.0,4.0,90,0.00,,,0.00,0.000000,,2013-01-17 05:33:00,
2013-01-16 23:43:00,29.0,26.0,-100.00,SSW,196,1.0,4.0,90,0.00,,,0.00,0.000000,,2013-01-17 05:43:00,
2013-01-16 23:53:00,29.0,26.0,-100.00,SSW,196,1.0,4.0,90,0.00,,,0.00,0.000000,,2013-01-17 05:53:00,